sensor_id;sensor_type;location;lat;lon;timestamp;P1;durP1;ratioP1;P2;durP2;ratioP2
79611;SDS011;69094;48.154;11.536;2023-08-12T00:00:26;5.87;;;3.60;;
79611;SDS011;69094;48.154;11.536;2023-08-12T00:02:51;4.93;;;4.00;;
79611;SDS011;69094;48.154;11.536;2023-08-12T00:05:17;6.07;;;3.92;;
79611;SDS011;69094;48.154;11.536;2023-08-12T00:07:42;6.10;;;4.25;;
79611;SDS011;69094;48.154;11.536;2023-08-12T00:10:08;6.18;;;4.10;;
79611;SDS011;69094;48.154;11.536;2023-08-12T00:12:35;4.90;;;3.80;;
79611;SDS011;69094;48.154;11.536;2023-08-12T00:15:02;6.63;;;3.75;;
79611;SDS011;69094;48.154;11.536;2023-08-12T00:17:29;7.75;;;4.35;;
79611;SDS011;69094;48.154;11.536;2023-08-12T00:19:55;5.32;;;4.32;;
79611;SDS011;69094;48.154;11.536;2023-08-12T00:22:21;7.68;;;4.35;;
79611;SDS011;69094;48.154;11.536;2023-08-12T00:24:47;5.68;;;4.30;;
79611;SDS011;69094;48.154;11.536;2023-08-12T00:27:12;6.13;;;4.03;;
79611;SDS011;69094;48.154;11.536;2023-08-12T00:29:38;7.55;;;4.75;;
79611;SDS011;69094;48.154;11.536;2023-08-12T00:32:03;6.90;;;4.17;;
79611;SDS011;69094;48.154;11.536;2023-08-12T00:34:29;5.22;;;3.95;;
79611;SDS011;69094;48.154;11.536;2023-08-12T00:36:54;4.80;;;3.60;;
79611;SDS011;69094;48.154;11.536;2023-08-12T00:39:19;4.22;;;3.80;;
79611;SDS011;69094;48.154;11.536;2023-08-12T00:41:45;6.53;;;4.15;;
79611;SDS011;69094;48.154;11.536;2023-08-12T00:44:10;5.38;;;3.85;;
79611;SDS011;69094;48.154;11.536;2023-08-12T00:46:36;10.40;;;6.65;;
79611;SDS011;69094;48.154;11.536;2023-08-12T00:49:04;7.63;;;5.22;;
79611;SDS011;69094;48.154;11.536;2023-08-12T00:51:29;5.72;;;4.28;;
79611;SDS011;69094;48.154;11.536;2023-08-12T00:53:56;5.47;;;4.35;;
79611;SDS011;69094;48.154;11.536;2023-08-12T00:56:23;5.53;;;4.00;;
79611;SDS011;69094;48.154;11.536;2023-08-12T00:58:48;5.95;;;4.10;;
79611;SDS011;69094;48.154;11.536;2023-08-12T01:01:14;7.50;;;4.25;;
79611;SDS011;69094;48.154;11.536;2023-08-12T01:03:40;4.80;;;3.90;;
79611;SDS011;69094;48.154;11.536;2023-08-12T01:06:06;5.53;;;4.38;;
79611;SDS011;69094;48.154;11.536;2023-08-12T01:08:32;6.28;;;4.22;;
79611;SDS011;69094;48.154;11.536;2023-08-12T01:11:02;7.25;;;4.93;;
79611;SDS011;69094;48.154;11.536;2023-08-12T01:16:05;8.77;;;5.03;;
79611;SDS011;69094;48.154;11.536;2023-08-12T01:18:33;6.25;;;4.50;;
79611;SDS011;69094;48.154;11.536;2023-08-12T01:20:59;5.80;;;4.18;;
79611;SDS011;69094;48.154;11.536;2023-08-12T01:23:28;6.80;;;4.43;;
79611;SDS011;69094;48.154;11.536;2023-08-12T01:25:54;5.47;;;4.32;;
79611;SDS011;69094;48.154;11.536;2023-08-12T01:28:19;6.00;;;4.28;;
79611;SDS011;69094;48.154;11.536;2023-08-12T01:33:44;5.20;;;4.35;;
79611;SDS011;69094;48.154;11.536;2023-08-12T01:36:21;5.80;;;4.53;;
79611;SDS011;69094;48.154;11.536;2023-08-12T01:38:50;7.90;;;5.10;;
79611;SDS011;69094;48.154;11.536;2023-08-12T01:41:16;8.77;;;4.82;;
79611;SDS011;69094;48.154;11.536;2023-08-12T01:43:45;7.13;;;4.75;;
79611;SDS011;69094;48.154;11.536;2023-08-12T01:46:11;6.47;;;4.50;;
79611;SDS011;69094;48.154;11.536;2023-08-12T01:48:36;7.50;;;4.40;;
79611;SDS011;69094;48.154;11.536;2023-08-12T01:51:02;5.43;;;4.35;;
79611;SDS011;69094;48.154;11.536;2023-08-12T01:53:28;6.75;;;4.90;;
79611;SDS011;69094;48.154;11.536;2023-08-12T01:55:53;6.43;;;4.00;;
79611;SDS011;69094;48.154;11.536;2023-08-12T01:58:18;9.02;;;4.88;;
79611;SDS011;69094;48.154;11.536;2023-08-12T02:00:44;7.57;;;4.80;;
79611;SDS011;69094;48.154;11.536;2023-08-12T02:03:09;7.27;;;4.53;;
79611;SDS011;69094;48.154;11.536;2023-08-12T02:05:35;6.03;;;4.65;;
79611;SDS011;69094;48.154;11.536;2023-08-12T02:08:02;5.40;;;4.40;;
79611;SDS011;69094;48.154;11.536;2023-08-12T02:10:28;6.40;;;4.63;;
79611;SDS011;69094;48.154;11.536;2023-08-12T02:12:54;8.18;;;4.78;;
79611;SDS011;69094;48.154;11.536;2023-08-12T02:15:19;6.35;;;4.28;;
79611;SDS011;69094;48.154;11.536;2023-08-12T02:17:45;7.25;;;4.80;;
79611;SDS011;69094;48.154;11.536;2023-08-12T02:20:10;6.83;;;4.53;;
79611;SDS011;69094;48.154;11.536;2023-08-12T02:22:36;6.40;;;4.90;;
79611;SDS011;69094;48.154;11.536;2023-08-12T02:25:01;7.40;;;5.18;;
79611;SDS011;69094;48.154;11.536;2023-08-12T02:27:27;7.15;;;4.60;;
79611;SDS011;69094;48.154;11.536;2023-08-12T02:29:52;7.22;;;5.18;;
79611;SDS011;69094;48.154;11.536;2023-08-12T02:32:18;7.53;;;4.50;;
79611;SDS011;69094;48.154;11.536;2023-08-12T02:34:43;8.80;;;4.75;;
79611;SDS011;69094;48.154;11.536;2023-08-12T02:37:08;6.43;;;4.77;;
79611;SDS011;69094;48.154;11.536;2023-08-12T02:39:34;9.73;;;5.78;;
79611;SDS011;69094;48.154;11.536;2023-08-12T02:41:59;7.00;;;4.70;;
79611;SDS011;69094;48.154;11.536;2023-08-12T02:44:24;8.43;;;4.70;;
79611;SDS011;69094;48.154;11.536;2023-08-12T02:46:50;7.57;;;5.30;;
79611;SDS011;69094;48.154;11.536;2023-08-12T02:49:15;7.03;;;4.63;;
79611;SDS011;69094;48.154;11.536;2023-08-12T02:51:41;7.45;;;4.80;;
79611;SDS011;69094;48.154;11.536;2023-08-12T02:54:06;6.27;;;4.40;;
79611;SDS011;69094;48.154;11.536;2023-08-12T02:56:31;5.97;;;4.82;;
79611;SDS011;69094;48.154;11.536;2023-08-12T02:58:57;7.73;;;4.67;;
79611;SDS011;69094;48.154;11.536;2023-08-12T03:01:22;7.07;;;4.68;;
79611;SDS011;69094;48.154;11.536;2023-08-12T03:03:48;6.00;;;4.43;;
79611;SDS011;69094;48.154;11.536;2023-08-12T03:06:13;7.57;;;4.60;;
79611;SDS011;69094;48.154;11.536;2023-08-12T03:08:38;6.55;;;4.38;;
79611;SDS011;69094;48.154;11.536;2023-08-12T03:11:04;6.35;;;4.30;;
79611;SDS011;69094;48.154;11.536;2023-08-12T03:13:29;7.45;;;4.82;;
79611;SDS011;69094;48.154;11.536;2023-08-12T03:15:55;8.18;;;4.65;;
79611;SDS011;69094;48.154;11.536;2023-08-12T03:18:21;6.47;;;4.75;;
79611;SDS011;69094;48.154;11.536;2023-08-12T03:20:47;6.47;;;4.75;;
79611;SDS011;69094;48.154;11.536;2023-08-12T03:23:12;9.15;;;5.05;;
79611;SDS011;69094;48.154;11.536;2023-08-12T03:25:37;6.60;;;4.73;;
79611;SDS011;69094;48.154;11.536;2023-08-12T03:28:03;9.05;;;4.57;;
79611;SDS011;69094;48.154;11.536;2023-08-12T03:30:28;6.03;;;4.15;;
79611;SDS011;69094;48.154;11.536;2023-08-12T03:32:54;6.97;;;5.03;;
79611;SDS011;69094;48.154;11.536;2023-08-12T03:35:19;7.97;;;4.85;;
79611;SDS011;69094;48.154;11.536;2023-08-12T03:37:44;7.13;;;4.60;;
79611;SDS011;69094;48.154;11.536;2023-08-12T03:40:10;6.60;;;4.70;;
79611;SDS011;69094;48.154;11.536;2023-08-12T03:42:36;5.93;;;4.50;;
79611;SDS011;69094;48.154;11.536;2023-08-12T03:45:01;6.65;;;4.93;;
79611;SDS011;69094;48.154;11.536;2023-08-12T03:47:26;8.10;;;4.93;;
79611;SDS011;69094;48.154;11.536;2023-08-12T03:49:52;7.23;;;4.90;;
79611;SDS011;69094;48.154;11.536;2023-08-12T03:52:18;6.55;;;4.95;;
79611;SDS011;69094;48.154;11.536;2023-08-12T03:54:43;7.13;;;5.15;;
79611;SDS011;69094;48.154;11.536;2023-08-12T03:57:09;6.53;;;4.72;;
79611;SDS011;69094;48.154;11.536;2023-08-12T03:59:35;6.50;;;4.57;;
79611;SDS011;69094;48.154;11.536;2023-08-12T04:02:00;6.88;;;4.55;;
79611;SDS011;69094;48.154;11.536;2023-08-12T04:04:26;7.30;;;5.47;;
79611;SDS011;69094;48.154;11.536;2023-08-12T04:06:52;7.10;;;4.70;;
79611;SDS011;69094;48.154;11.536;2023-08-12T04:09:18;6.50;;;4.40;;
79611;SDS011;69094;48.154;11.536;2023-08-12T04:11:43;6.95;;;4.82;;
79611;SDS011;69094;48.154;11.536;2023-08-12T04:14:09;6.93;;;4.15;;
79611;SDS011;69094;48.154;11.536;2023-08-12T04:16:35;9.50;;;5.55;;
79611;SDS011;69094;48.154;11.536;2023-08-12T04:19:01;8.13;;;4.40;;
79611;SDS011;69094;48.154;11.536;2023-08-12T04:21:26;7.85;;;5.32;;
79611;SDS011;69094;48.154;11.536;2023-08-12T04:23:52;6.03;;;4.72;;
79611;SDS011;69094;48.154;11.536;2023-08-12T04:26:17;6.72;;;4.32;;
79611;SDS011;69094;48.154;11.536;2023-08-12T04:28:43;8.03;;;4.80;;
79611;SDS011;69094;48.154;11.536;2023-08-12T04:31:08;6.90;;;4.27;;
79611;SDS011;69094;48.154;11.536;2023-08-12T04:33:34;5.88;;;4.10;;
79611;SDS011;69094;48.154;11.536;2023-08-12T04:35:59;6.85;;;4.63;;
79611;SDS011;69094;48.154;11.536;2023-08-12T04:38:25;5.17;;;4.13;;
79611;SDS011;69094;48.154;11.536;2023-08-12T04:40:52;6.88;;;4.85;;
79611;SDS011;69094;48.154;11.536;2023-08-12T04:43:18;7.90;;;4.95;;
79611;SDS011;69094;48.154;11.536;2023-08-12T04:45:46;6.30;;;4.70;;
79611;SDS011;69094;48.154;11.536;2023-08-12T04:48:12;7.75;;;4.95;;
79611;SDS011;69094;48.154;11.536;2023-08-12T04:50:38;7.57;;;4.57;;
79611;SDS011;69094;48.154;11.536;2023-08-12T04:53:04;9.00;;;4.68;;
79611;SDS011;69094;48.154;11.536;2023-08-12T04:55:30;6.03;;;4.70;;
79611;SDS011;69094;48.154;11.536;2023-08-12T04:57:56;6.22;;;4.80;;
79611;SDS011;69094;48.154;11.536;2023-08-12T05:00:22;8.57;;;4.70;;
79611;SDS011;69094;48.154;11.536;2023-08-12T05:02:48;7.13;;;4.60;;
79611;SDS011;69094;48.154;11.536;2023-08-12T05:05:14;7.07;;;4.13;;
79611;SDS011;69094;48.154;11.536;2023-08-12T05:07:39;6.72;;;4.32;;
79611;SDS011;69094;48.154;11.536;2023-08-12T05:10:05;7.68;;;4.40;;
79611;SDS011;69094;48.154;11.536;2023-08-12T05:12:31;15.75;;;9.25;;
79611;SDS011;69094;48.154;11.536;2023-08-12T05:14:56;16.80;;;10.10;;
79611;SDS011;69094;48.154;11.536;2023-08-12T05:17:22;9.50;;;4.93;;
79611;SDS011;69094;48.154;11.536;2023-08-12T05:19:47;6.45;;;4.50;;
79611;SDS011;69094;48.154;11.536;2023-08-12T05:22:13;9.38;;;5.95;;
79611;SDS011;69094;48.154;11.536;2023-08-12T05:24:38;6.80;;;4.95;;
79611;SDS011;69094;48.154;11.536;2023-08-12T05:27:03;6.55;;;4.57;;
79611;SDS011;69094;48.154;11.536;2023-08-12T05:29:29;7.57;;;3.85;;
79611;SDS011;69094;48.154;11.536;2023-08-12T05:31:55;6.15;;;4.15;;
79611;SDS011;69094;48.154;11.536;2023-08-12T05:34:20;5.82;;;4.30;;
79611;SDS011;69094;48.154;11.536;2023-08-12T05:36:46;7.78;;;4.97;;
79611;SDS011;69094;48.154;11.536;2023-08-12T05:39:11;7.60;;;4.03;;
79611;SDS011;69094;48.154;11.536;2023-08-12T05:41:37;6.70;;;4.03;;
79611;SDS011;69094;48.154;11.536;2023-08-12T05:44:02;9.02;;;4.18;;
79611;SDS011;69094;48.154;11.536;2023-08-12T05:46:28;10.80;;;4.22;;
79611;SDS011;69094;48.154;11.536;2023-08-12T05:48:53;7.77;;;4.60;;
79611;SDS011;69094;48.154;11.536;2023-08-12T05:51:19;8.38;;;4.30;;
79611;SDS011;69094;48.154;11.536;2023-08-12T05:53:44;5.35;;;4.05;;
79611;SDS011;69094;48.154;11.536;2023-08-12T05:56:10;9.45;;;4.10;;
79611;SDS011;69094;48.154;11.536;2023-08-12T05:58:35;5.40;;;4.10;;
79611;SDS011;69094;48.154;11.536;2023-08-12T06:01:00;9.47;;;4.30;;
79611;SDS011;69094;48.154;11.536;2023-08-12T06:03:26;7.27;;;4.23;;
79611;SDS011;69094;48.154;11.536;2023-08-12T06:05:51;8.57;;;4.27;;
79611;SDS011;69094;48.154;11.536;2023-08-12T06:08:16;6.00;;;4.45;;
79611;SDS011;69094;48.154;11.536;2023-08-12T06:10:42;4.75;;;4.03;;
79611;SDS011;69094;48.154;11.536;2023-08-12T06:13:08;6.03;;;3.58;;
79611;SDS011;69094;48.154;11.536;2023-08-12T06:15:33;6.50;;;3.60;;
79611;SDS011;69094;48.154;11.536;2023-08-12T06:18:02;4.27;;;3.37;;
79611;SDS011;69094;48.154;11.536;2023-08-12T06:20:27;5.60;;;3.72;;
79611;SDS011;69094;48.154;11.536;2023-08-12T06:22:53;6.97;;;3.97;;
79611;SDS011;69094;48.154;11.536;2023-08-12T06:25:18;5.18;;;4.00;;
79611;SDS011;69094;48.154;11.536;2023-08-12T06:27:44;7.78;;;4.03;;
79611;SDS011;69094;48.154;11.536;2023-08-12T06:30:12;7.38;;;4.13;;
79611;SDS011;69094;48.154;11.536;2023-08-12T06:32:38;6.32;;;4.55;;
79611;SDS011;69094;48.154;11.536;2023-08-12T06:35:04;5.78;;;3.70;;
79611;SDS011;69094;48.154;11.536;2023-08-12T06:37:30;5.03;;;3.60;;
79611;SDS011;69094;48.154;11.536;2023-08-12T06:39:55;5.07;;;3.45;;
79611;SDS011;69094;48.154;11.536;2023-08-12T06:42:23;5.60;;;3.73;;
79611;SDS011;69094;48.154;11.536;2023-08-12T06:44:58;6.20;;;3.85;;
79611;SDS011;69094;48.154;11.536;2023-08-12T06:47:24;5.53;;;3.70;;
79611;SDS011;69094;48.154;11.536;2023-08-12T06:49:52;8.10;;;3.75;;
79611;SDS011;69094;48.154;11.536;2023-08-12T06:52:18;6.20;;;4.18;;
79611;SDS011;69094;48.154;11.536;2023-08-12T06:54:43;4.53;;;3.60;;
79611;SDS011;69094;48.154;11.536;2023-08-12T06:57:08;8.63;;;3.30;;
79611;SDS011;69094;48.154;11.536;2023-08-12T06:59:34;5.88;;;4.10;;
79611;SDS011;69094;48.154;11.536;2023-08-12T07:01:59;4.73;;;3.33;;
79611;SDS011;69094;48.154;11.536;2023-08-12T07:04:24;5.85;;;3.97;;
79611;SDS011;69094;48.154;11.536;2023-08-12T07:06:50;4.28;;;3.53;;
79611;SDS011;69094;48.154;11.536;2023-08-12T07:09:15;4.53;;;3.60;;
79611;SDS011;69094;48.154;11.536;2023-08-12T07:11:41;4.60;;;3.73;;
79611;SDS011;69094;48.154;11.536;2023-08-12T07:14:06;7.05;;;3.47;;
79611;SDS011;69094;48.154;11.536;2023-08-12T07:16:31;5.63;;;3.13;;
79611;SDS011;69094;48.154;11.536;2023-08-12T07:18:58;5.72;;;3.60;;
79611;SDS011;69094;48.154;11.536;2023-08-12T07:21:23;4.60;;;3.30;;
79611;SDS011;69094;48.154;11.536;2023-08-12T07:23:48;4.00;;;3.27;;
79611;SDS011;69094;48.154;11.536;2023-08-12T07:26:14;4.50;;;3.25;;
79611;SDS011;69094;48.154;11.536;2023-08-12T07:28:39;9.38;;;3.80;;
79611;SDS011;69094;48.154;11.536;2023-08-12T07:31:05;7.63;;;3.55;;
79611;SDS011;69094;48.154;11.536;2023-08-12T07:33:30;6.75;;;3.58;;
79611;SDS011;69094;48.154;11.536;2023-08-12T07:35:56;4.78;;;3.70;;
79611;SDS011;69094;48.154;11.536;2023-08-12T07:38:21;4.63;;;3.30;;
79611;SDS011;69094;48.154;11.536;2023-08-12T07:40:48;5.40;;;3.60;;
79611;SDS011;69094;48.154;11.536;2023-08-12T07:43:13;7.30;;;3.45;;
79611;SDS011;69094;48.154;11.536;2023-08-12T07:45:39;3.63;;;3.27;;
79611;SDS011;69094;48.154;11.536;2023-08-12T07:48:04;4.40;;;3.27;;
79611;SDS011;69094;48.154;11.536;2023-08-12T07:50:30;6.47;;;3.60;;
79611;SDS011;69094;48.154;11.536;2023-08-12T07:52:55;3.53;;;3.23;;
79611;SDS011;69094;48.154;11.536;2023-08-12T07:55:21;4.13;;;3.70;;
79611;SDS011;69094;48.154;11.536;2023-08-12T07:57:46;4.57;;;3.42;;
79611;SDS011;69094;48.154;11.536;2023-08-12T08:00:11;5.77;;;3.67;;
79611;SDS011;69094;48.154;11.536;2023-08-12T08:02:37;6.40;;;3.63;;
79611;SDS011;69094;48.154;11.536;2023-08-12T08:05:03;5.07;;;3.60;;
79611;SDS011;69094;48.154;11.536;2023-08-12T08:07:29;6.18;;;3.53;;
79611;SDS011;69094;48.154;11.536;2023-08-12T08:09:54;3.60;;;3.15;;
79611;SDS011;69094;48.154;11.536;2023-08-12T08:12:20;3.88;;;3.30;;
79611;SDS011;69094;48.154;11.536;2023-08-12T08:14:45;5.63;;;3.53;;
79611;SDS011;69094;48.154;11.536;2023-08-12T08:17:11;7.13;;;3.37;;
79611;SDS011;69094;48.154;11.536;2023-08-12T08:19:36;4.70;;;3.17;;
79611;SDS011;69094;48.154;11.536;2023-08-12T08:22:01;12.60;;;8.80;;
79611;SDS011;69094;48.154;11.536;2023-08-12T08:24:28;5.53;;;3.35;;
79611;SDS011;69094;48.154;11.536;2023-08-12T08:26:53;5.80;;;3.50;;
79611;SDS011;69094;48.154;11.536;2023-08-12T08:29:19;4.00;;;3.50;;
79611;SDS011;69094;48.154;11.536;2023-08-12T08:31:44;3.80;;;3.50;;
79611;SDS011;69094;48.154;11.536;2023-08-12T08:34:09;4.40;;;3.60;;
79611;SDS011;69094;48.154;11.536;2023-08-12T08:36:35;3.83;;;3.38;;
79611;SDS011;69094;48.154;11.536;2023-08-12T08:39:01;4.00;;;3.60;;
79611;SDS011;69094;48.154;11.536;2023-08-12T08:41:28;3.75;;;3.25;;
79611;SDS011;69094;48.154;11.536;2023-08-12T08:43:56;3.47;;;3.10;;
79611;SDS011;69094;48.154;11.536;2023-08-12T08:46:27;2.95;;;2.45;;
79611;SDS011;69094;48.154;11.536;2023-08-12T08:48:52;3.78;;;3.10;;
79611;SDS011;69094;48.154;11.536;2023-08-12T08:51:20;4.45;;;3.50;;
79611;SDS011;69094;48.154;11.536;2023-08-12T08:53:46;5.63;;;3.45;;
79611;SDS011;69094;48.154;11.536;2023-08-12T08:56:12;3.97;;;3.42;;
79611;SDS011;69094;48.154;11.536;2023-08-12T08:58:38;4.20;;;3.33;;
79611;SDS011;69094;48.154;11.536;2023-08-12T09:01:05;4.50;;;3.35;;
79611;SDS011;69094;48.154;11.536;2023-08-12T09:03:32;4.45;;;3.63;;
79611;SDS011;69094;48.154;11.536;2023-08-12T09:06:00;3.33;;;3.03;;
79611;SDS011;69094;48.154;11.536;2023-08-12T09:08:26;4.07;;;3.38;;
79611;SDS011;69094;48.154;11.536;2023-08-12T09:10:54;4.60;;;3.22;;
79611;SDS011;69094;48.154;11.536;2023-08-12T09:13:22;10.93;;;4.07;;
79611;SDS011;69094;48.154;11.536;2023-08-12T09:15:48;4.07;;;3.38;;
79611;SDS011;69094;48.154;11.536;2023-08-12T09:18:13;5.15;;;3.17;;
79611;SDS011;69094;48.154;11.536;2023-08-12T09:20:40;4.82;;;3.60;;
79611;SDS011;69094;48.154;11.536;2023-08-12T09:23:06;4.32;;;3.25;;
79611;SDS011;69094;48.154;11.536;2023-08-12T09:25:34;4.78;;;3.70;;
79611;SDS011;69094;48.154;11.536;2023-08-12T09:28:00;4.20;;;3.00;;
79611;SDS011;69094;48.154;11.536;2023-08-12T09:30:28;4.97;;;3.47;;
79611;SDS011;69094;48.154;11.536;2023-08-12T09:33:03;4.47;;;3.35;;
79611;SDS011;69094;48.154;11.536;2023-08-12T09:35:36;4.75;;;3.60;;
79611;SDS011;69094;48.154;11.536;2023-08-12T09:38:02;4.60;;;4.20;;
79611;SDS011;69094;48.154;11.536;2023-08-12T09:40:30;3.92;;;3.53;;
79611;SDS011;69094;48.154;11.536;2023-08-12T09:42:56;4.22;;;3.70;;
79611;SDS011;69094;48.154;11.536;2023-08-12T09:45:25;4.43;;;3.88;;
79611;SDS011;69094;48.154;11.536;2023-08-12T09:47:51;5.40;;;3.80;;
79611;SDS011;69094;48.154;11.536;2023-08-12T09:50:21;4.05;;;3.58;;
79611;SDS011;69094;48.154;11.536;2023-08-12T09:52:48;4.07;;;3.67;;
79611;SDS011;69094;48.154;11.536;2023-08-12T09:55:15;4.20;;;3.58;;
79611;SDS011;69094;48.154;11.536;2023-08-12T09:57:42;4.28;;;3.72;;
79611;SDS011;69094;48.154;11.536;2023-08-12T10:00:11;4.53;;;3.63;;
79611;SDS011;69094;48.154;11.536;2023-08-12T10:02:41;4.10;;;3.70;;
79611;SDS011;69094;48.154;11.536;2023-08-12T10:05:12;5.50;;;3.83;;
79611;SDS011;69094;48.154;11.536;2023-08-12T10:07:41;5.13;;;3.38;;
79611;SDS011;69094;48.154;11.536;2023-08-12T10:10:08;5.05;;;3.97;;
79611;SDS011;69094;48.154;11.536;2023-08-12T10:12:35;5.75;;;3.50;;
79611;SDS011;69094;48.154;11.536;2023-08-12T10:15:01;5.07;;;3.47;;
79611;SDS011;69094;48.154;11.536;2023-08-12T10:17:27;3.85;;;3.45;;
79611;SDS011;69094;48.154;11.536;2023-08-12T10:19:56;5.40;;;3.67;;
79611;SDS011;69094;48.154;11.536;2023-08-12T10:22:25;3.88;;;3.47;;
79611;SDS011;69094;48.154;11.536;2023-08-12T10:24:51;5.38;;;3.60;;
79611;SDS011;69094;48.154;11.536;2023-08-12T10:27:17;6.35;;;3.60;;
79611;SDS011;69094;48.154;11.536;2023-08-12T10:29:43;5.93;;;3.50;;
79611;SDS011;69094;48.154;11.536;2023-08-12T10:32:08;4.32;;;3.53;;
79611;SDS011;69094;48.154;11.536;2023-08-12T10:34:34;5.70;;;3.80;;
79611;SDS011;69094;48.154;11.536;2023-08-12T10:37:03;9.57;;;3.88;;
79611;SDS011;69094;48.154;11.536;2023-08-12T10:39:29;4.00;;;3.58;;
79611;SDS011;69094;48.154;11.536;2023-08-12T10:41:57;4.85;;;3.42;;
79611;SDS011;69094;48.154;11.536;2023-08-12T10:44:26;4.28;;;3.40;;
79611;SDS011;69094;48.154;11.536;2023-08-12T10:47:07;6.43;;;3.50;;
79611;SDS011;69094;48.154;11.536;2023-08-12T10:49:37;4.03;;;3.03;;
79611;SDS011;69094;48.154;11.536;2023-08-12T10:52:04;4.03;;;3.05;;
79611;SDS011;69094;48.154;11.536;2023-08-12T10:54:29;4.57;;;2.80;;
79611;SDS011;69094;48.154;11.536;2023-08-12T11:04:57;3.10;;;2.83;;
79611;SDS011;69094;48.154;11.536;2023-08-12T11:10:11;4.40;;;2.40;;
79611;SDS011;69094;48.154;11.536;2023-08-12T11:13:02;3.00;;;2.70;;
79611;SDS011;69094;48.154;11.536;2023-08-12T11:15:45;4.20;;;2.47;;
79611;SDS011;69094;48.154;11.536;2023-08-12T11:18:12;3.05;;;2.75;;
79611;SDS011;69094;48.154;11.536;2023-08-12T11:20:39;5.00;;;2.42;;
79611;SDS011;69094;48.154;11.536;2023-08-12T11:23:05;2.92;;;2.53;;
79611;SDS011;69094;48.154;11.536;2023-08-12T11:25:34;4.22;;;2.92;;
79611;SDS011;69094;48.154;11.536;2023-08-12T11:28:01;4.88;;;2.92;;
79611;SDS011;69094;48.154;11.536;2023-08-12T11:30:26;4.50;;;2.45;;
79611;SDS011;69094;48.154;11.536;2023-08-12T11:32:53;3.17;;;2.63;;
79611;SDS011;69094;48.154;11.536;2023-08-12T11:35:20;3.20;;;2.45;;
79611;SDS011;69094;48.154;11.536;2023-08-12T11:37:48;3.28;;;2.97;;
79611;SDS011;69094;48.154;11.536;2023-08-12T11:40:16;4.85;;;2.85;;
79611;SDS011;69094;48.154;11.536;2023-08-12T11:42:43;4.45;;;3.05;;
79611;SDS011;69094;48.154;11.536;2023-08-12T11:45:10;3.25;;;2.88;;
79611;SDS011;69094;48.154;11.536;2023-08-12T11:47:36;4.57;;;2.80;;
79611;SDS011;69094;48.154;11.536;2023-08-12T11:50:04;4.45;;;2.35;;
79611;SDS011;69094;48.154;11.536;2023-08-12T11:52:30;4.82;;;2.50;;
79611;SDS011;69094;48.154;11.536;2023-08-12T11:54:56;3.95;;;2.72;;
79611;SDS011;69094;48.154;11.536;2023-08-12T11:57:22;7.43;;;3.13;;
79611;SDS011;69094;48.154;11.536;2023-08-12T11:59:48;2.92;;;2.63;;
79611;SDS011;69094;48.154;11.536;2023-08-12T12:02:14;4.90;;;3.08;;
79611;SDS011;69094;48.154;11.536;2023-08-12T12:04:41;2.80;;;2.40;;
79611;SDS011;69094;48.154;11.536;2023-08-12T12:07:20;3.40;;;2.55;;
79611;SDS011;69094;48.154;11.536;2023-08-12T12:09:50;4.88;;;2.63;;
79611;SDS011;69094;48.154;11.536;2023-08-12T12:12:16;3.08;;;2.78;;
79611;SDS011;69094;48.154;11.536;2023-08-12T12:14:42;3.60;;;2.67;;
79611;SDS011;69094;48.154;11.536;2023-08-12T12:17:08;3.33;;;2.67;;
79611;SDS011;69094;48.154;11.536;2023-08-12T12:19:39;3.53;;;2.65;;
79611;SDS011;69094;48.154;11.536;2023-08-12T12:22:05;3.00;;;2.72;;
79611;SDS011;69094;48.154;11.536;2023-08-12T12:24:31;3.10;;;2.80;;
79611;SDS011;69094;48.154;11.536;2023-08-12T12:27:13;4.68;;;3.10;;
79611;SDS011;69094;48.154;11.536;2023-08-12T12:29:39;4.75;;;2.83;;
79611;SDS011;69094;48.154;11.536;2023-08-12T12:32:05;3.00;;;2.70;;
79611;SDS011;69094;48.154;11.536;2023-08-12T12:34:30;4.60;;;2.80;;
79611;SDS011;69094;48.154;11.536;2023-08-12T12:36:55;5.10;;;2.77;;
79611;SDS011;69094;48.154;11.536;2023-08-12T12:39:21;4.13;;;2.90;;
79611;SDS011;69094;48.154;11.536;2023-08-12T12:41:48;3.42;;;3.13;;
79611;SDS011;69094;48.154;11.536;2023-08-12T12:44:14;3.50;;;2.90;;
79611;SDS011;69094;48.154;11.536;2023-08-12T12:46:39;7.40;;;3.00;;
79611;SDS011;69094;48.154;11.536;2023-08-12T12:49:05;4.67;;;2.93;;
79611;SDS011;69094;48.154;11.536;2023-08-12T12:51:30;5.20;;;3.03;;
79611;SDS011;69094;48.154;11.536;2023-08-12T12:53:55;3.40;;;2.88;;
79611;SDS011;69094;48.154;11.536;2023-08-12T12:56:21;4.75;;;4.03;;
79611;SDS011;69094;48.154;11.536;2023-08-12T12:58:46;3.13;;;2.83;;
79611;SDS011;69094;48.154;11.536;2023-08-12T13:01:12;4.18;;;3.00;;
79611;SDS011;69094;48.154;11.536;2023-08-12T13:03:37;3.10;;;2.80;;
79611;SDS011;69094;48.154;11.536;2023-08-12T13:06:03;5.03;;;2.93;;
79611;SDS011;69094;48.154;11.536;2023-08-12T13:08:29;2.78;;;2.30;;
79611;SDS011;69094;48.154;11.536;2023-08-12T13:10:56;3.45;;;2.72;;
79611;SDS011;69094;48.154;11.536;2023-08-12T13:13:21;4.85;;;2.80;;
79611;SDS011;69094;48.154;11.536;2023-08-12T13:15:46;3.13;;;2.40;;
79611;SDS011;69094;48.154;11.536;2023-08-12T13:18:12;4.55;;;3.00;;
79611;SDS011;69094;48.154;11.536;2023-08-12T13:20:38;2.60;;;2.30;;
79611;SDS011;69094;48.154;11.536;2023-08-12T13:23:03;3.10;;;2.75;;
79611;SDS011;69094;48.154;11.536;2023-08-12T13:25:30;4.32;;;2.60;;
79611;SDS011;69094;48.154;11.536;2023-08-12T13:27:57;4.05;;;2.50;;
79611;SDS011;69094;48.154;11.536;2023-08-12T13:30:23;4.55;;;2.70;;
79611;SDS011;69094;48.154;11.536;2023-08-12T13:32:48;3.15;;;2.28;;
79611;SDS011;69094;48.154;11.536;2023-08-12T13:35:13;8.73;;;2.50;;
79611;SDS011;69094;48.154;11.536;2023-08-12T13:37:39;3.28;;;2.78;;
79611;SDS011;69094;48.154;11.536;2023-08-12T13:40:05;5.32;;;2.70;;
79611;SDS011;69094;48.154;11.536;2023-08-12T13:42:31;3.13;;;2.67;;
79611;SDS011;69094;48.154;11.536;2023-08-12T13:44:56;4.30;;;2.73;;
79611;SDS011;69094;48.154;11.536;2023-08-12T13:47:22;4.80;;;2.95;;
79611;SDS011;69094;48.154;11.536;2023-08-12T13:49:47;3.03;;;2.30;;
79611;SDS011;69094;48.154;11.536;2023-08-12T13:52:12;3.33;;;2.57;;
79611;SDS011;69094;48.154;11.536;2023-08-12T13:54:38;5.00;;;2.80;;
79611;SDS011;69094;48.154;11.536;2023-08-12T13:57:03;3.50;;;2.73;;
79611;SDS011;69094;48.154;11.536;2023-08-12T13:59:29;3.83;;;2.85;;
79611;SDS011;69094;48.154;11.536;2023-08-12T14:01:55;4.57;;;2.60;;
79611;SDS011;69094;48.154;11.536;2023-08-12T14:04:20;2.77;;;2.53;;
79611;SDS011;69094;48.154;11.536;2023-08-12T14:06:45;3.60;;;2.40;;
79611;SDS011;69094;48.154;11.536;2023-08-12T14:09:11;6.38;;;2.67;;
79611;SDS011;69094;48.154;11.536;2023-08-12T14:11:38;4.20;;;2.85;;
79611;SDS011;69094;48.154;11.536;2023-08-12T14:14:04;2.60;;;2.40;;
79611;SDS011;69094;48.154;11.536;2023-08-12T14:16:29;2.67;;;2.40;;
79611;SDS011;69094;48.154;11.536;2023-08-12T14:18:55;3.73;;;3.20;;
79611;SDS011;69094;48.154;11.536;2023-08-12T14:21:20;4.18;;;2.78;;
79611;SDS011;69094;48.154;11.536;2023-08-12T14:23:46;7.22;;;3.00;;
79611;SDS011;69094;48.154;11.536;2023-08-12T14:26:11;4.05;;;2.90;;
79611;SDS011;69094;48.154;11.536;2023-08-12T14:28:36;4.73;;;3.33;;
79611;SDS011;69094;48.154;11.536;2023-08-12T14:31:02;4.13;;;3.50;;
79611;SDS011;69094;48.154;11.536;2023-08-12T14:33:28;5.35;;;2.95;;
79611;SDS011;69094;48.154;11.536;2023-08-12T14:35:57;5.60;;;3.38;;
79611;SDS011;69094;48.154;11.536;2023-08-12T14:38:22;4.78;;;3.22;;
79611;SDS011;69094;48.154;11.536;2023-08-12T14:40:49;4.80;;;2.97;;
79611;SDS011;69094;48.154;11.536;2023-08-12T14:43:14;7.68;;;3.55;;